sensor_id;sensor_type;location;lat;lon;timestamp;pressure;altitude;pressure_sealevel;temperature;humidity
67818;BME280;54614;47.576;7.524;2024-03-23T00:53:59;97968.06;;;25.97;37.47
67818;BME280;54614;47.576;7.524;2024-03-23T00:56:25;97965.06;;;26.05;37.38
67818;BME280;54614;47.576;7.524;2024-03-23T00:58:50;97958.50;;;26.01;37.08
67818;BME280;54614;47.576;7.524;2024-03-23T01:01:16;97962.69;;;25.97;37.30
67818;BME280;54614;47.576;7.524;2024-03-23T01:03:42;97963.28;;;25.99;37.08
67818;BME280;54614;47.576;7.524;2024-03-23T01:06:08;97955.91;;;25.94;37.34
67818;BME280;54614;47.576;7.524;2024-03-23T01:08:33;97950.16;;;26.14;37.12
67818;BME280;54614;47.576;7.524;2024-03-23T01:11:01;97952.63;;;26.16;36.87
67818;BME280;54614;47.576;7.524;2024-03-23T01:13:28;97947.47;;;26.14;36.98
67818;BME280;54614;47.576;7.524;2024-03-23T01:15:55;97941.72;;;26.11;36.97
67818;BME280;54614;47.576;7.524;2024-03-23T01:18:23;97938.69;;;26.07;37.05
67818;BME280;54614;47.576;7.524;2024-03-23T01:20:49;97933.53;;;26.06;37.21
67818;BME280;54614;47.576;7.524;2024-03-23T01:23:15;97941.00;;;26.15;37.01
67818;BME280;54614;47.576;7.524;2024-03-23T01:25:41;97937.41;;;26.10;37.08
67818;BME280;54614;47.576;7.524;2024-03-23T01:28:07;97945.94;;;26.18;37.05
67818;BME280;54614;47.576;7.524;2024-03-23T01:30:34;97943.94;;;26.14;36.97
67818;BME280;54614;47.576;7.524;2024-03-23T01:33:01;97939.28;;;26.09;37.23
67818;BME280;54614;47.576;7.524;2024-03-23T01:35:28;97935.88;;;26.14;37.00
67818;BME280;54614;47.576;7.524;2024-03-23T01:37:54;97934.00;;;26.14;37.03
67818;BME280;54614;47.576;7.524;2024-03-23T01:40:20;97933.50;;;26.17;36.79
67818;BME280;54614;47.576;7.524;2024-03-23T01:43:03;97938.66;;;26.19;36.85
67818;BME280;54614;47.576;7.524;2024-03-23T01:45:31;97940.66;;;26.12;37.20
67818;BME280;54614;47.576;7.524;2024-03-23T01:47:57;97929.06;;;26.11;37.14
67818;BME280;54614;47.576;7.524;2024-03-23T01:50:23;97929.06;;;26.11;36.87
67818;BME280;54614;47.576;7.524;2024-03-23T01:52:50;97930.59;;;26.07;37.13
67818;BME280;54614;47.576;7.524;2024-03-23T01:55:16;97926.38;;;26.11;36.94
67818;BME280;54614;47.576;7.524;2024-03-23T01:57:42;97929.19;;;26.16;37.00
67818;BME280;54614;47.576;7.524;2024-03-23T02:00:09;97918.28;;;26.11;36.94
67818;BME280;54614;47.576;7.524;2024-03-23T02:02:45;97916.53;;;26.17;36.94
67818;BME280;54614;47.576;7.524;2024-03-23T02:05:14;97907.63;;;26.16;36.94
67818;BME280;54614;47.576;7.524;2024-03-23T02:07:41;97914.31;;;26.02;37.16
67818;BME280;54614;47.576;7.524;2024-03-23T02:10:10;97913.25;;;26.15;36.98
67818;BME280;54614;47.576;7.524;2024-03-23T02:12:37;97909.25;;;26.17;37.04
67818;BME280;54614;47.576;7.524;2024-03-23T02:15:03;97897.78;;;26.10;37.09
67818;BME280;54614;47.576;7.524;2024-03-23T02:17:33;97893.44;;;26.09;36.98
67818;BME280;54614;47.576;7.524;2024-03-23T02:20:00;97898.72;;;26.16;37.17
67818;BME280;54614;47.576;7.524;2024-03-23T02:22:37;97886.06;;;26.16;36.89
67818;BME280;54614;47.576;7.524;2024-03-23T02:25:06;97898.16;;;26.02;37.20
67818;BME280;54614;47.576;7.524;2024-03-23T02:27:33;97891.34;;;26.11;37.19
67818;BME280;54614;47.576;7.524;2024-03-23T02:30:00;97903.06;;;26.05;37.18
67818;BME280;54614;47.576;7.524;2024-03-23T02:32:26;97888.78;;;26.05;37.09
67818;BME280;54614;47.576;7.524;2024-03-23T02:34:52;97891.13;;;26.01;37.33
67818;BME280;54614;47.576;7.524;2024-03-23T02:37:17;97879.06;;;26.04;37.49
67818;BME280;54614;47.576;7.524;2024-03-23T02:39:43;97866.41;;;25.92;37.46
67818;BME280;54614;47.576;7.524;2024-03-23T02:42:09;97870.94;;;26.15;36.85
67818;BME280;54614;47.576;7.524;2024-03-23T02:44:35;97860.06;;;26.10;37.11
67818;BME280;54614;47.576;7.524;2024-03-23T02:47:00;97865.09;;;26.07;37.08
67818;BME280;54614;47.576;7.524;2024-03-23T02:49:27;97859.38;;;26.03;37.40
67818;BME280;54614;47.576;7.524;2024-03-23T02:51:53;97861.22;;;26.14;37.11
67818;BME280;54614;47.576;7.524;2024-03-23T02:54:18;97857.22;;;26.17;37.01
67818;BME280;54614;47.576;7.524;2024-03-23T02:56:44;97852.09;;;26.04;37.02
67818;BME280;54614;47.576;7.524;2024-03-23T02:59:10;97847.53;;;26.04;37.09
67818;BME280;54614;47.576;7.524;2024-03-23T03:01:36;97859.00;;;26.11;37.04
67818;BME280;54614;47.576;7.524;2024-03-23T03:04:01;97848.31;;;26.16;36.99
67818;BME280;54614;47.576;7.524;2024-03-23T03:06:29;97861.22;;;26.14;37.19
67818;BME280;54614;47.576;7.524;2024-03-23T03:08:55;97848.59;;;26.03;37.45
67818;BME280;54614;47.576;7.524;2024-03-23T03:11:21;97838.00;;;26.13;37.24
67818;BME280;54614;47.576;7.524;2024-03-23T03:13:46;97842.81;;;26.11;36.91
67818;BME280;54614;47.576;7.524;2024-03-23T03:16:12;97840.84;;;26.07;37.25
67818;BME280;54614;47.576;7.524;2024-03-23T03:18:38;97837.22;;;26.01;37.39
67818;BME280;54614;47.576;7.524;2024-03-23T03:21:06;97838.16;;;26.07;37.48
67818;BME280;54614;47.576;7.524;2024-03-23T03:23:38;97826.91;;;26.10;37.22
67818;BME280;54614;47.576;7.524;2024-03-23T03:26:07;97827.94;;;26.09;37.18
67818;BME280;54614;47.576;7.524;2024-03-23T03:28:33;97820.34;;;26.06;37.27
67818;BME280;54614;47.576;7.524;2024-03-23T03:31:00;97815.28;;;26.09;37.33
67818;BME280;54614;47.576;7.524;2024-03-23T03:33:27;97811.06;;;26.13;36.96
67818;BME280;54614;47.576;7.524;2024-03-23T03:35:54;97808.16;;;26.03;37.39
67818;BME280;54614;47.576;7.524;2024-03-23T03:38:19;97802.88;;;26.08;37.04
67818;BME280;54614;47.576;7.524;2024-03-23T03:40:45;97800.03;;;26.15;37.13
67818;BME280;54614;47.576;7.524;2024-03-23T03:43:11;97797.59;;;26.13;36.92
67818;BME280;54614;47.576;7.524;2024-03-23T03:45:37;97793.72;;;26.09;37.20
67818;BME280;54614;47.576;7.524;2024-03-23T03:48:03;97797.09;;;26.16;37.14
67818;BME280;54614;47.576;7.524;2024-03-23T03:50:30;97799.13;;;26.09;37.04
67818;BME280;54614;47.576;7.524;2024-03-23T03:52:56;97785.06;;;26.07;37.22
67818;BME280;54614;47.576;7.524;2024-03-23T03:55:22;97782.63;;;26.06;36.95
67818;BME280;54614;47.576;7.524;2024-03-23T03:57:47;97782.94;;;26.09;37.12
67818;BME280;54614;47.576;7.524;2024-03-23T04:00:13;97795.38;;;26.10;37.09
67818;BME280;54614;47.576;7.524;2024-03-23T04:02:40;97828.53;;;26.11;37.00
67818;BME280;54614;47.576;7.524;2024-03-23T04:05:07;97865.56;;;26.04;37.31
67818;BME280;54614;47.576;7.524;2024-03-23T04:07:33;97875.97;;;26.00;37.42
67818;BME280;54614;47.576;7.524;2024-03-23T04:09:59;97869.19;;;25.97;37.33
67818;BME280;54614;47.576;7.524;2024-03-23T04:12:26;97874.13;;;25.89;37.55
67818;BME280;54614;47.576;7.524;2024-03-23T04:14:51;97858.88;;;25.94;37.38
67818;BME280;54614;47.576;7.524;2024-03-23T04:17:17;97837.91;;;26.08;37.09
67818;BME280;54614;47.576;7.524;2024-03-23T04:19:44;97839.44;;;26.04;37.16
67818;BME280;54614;47.576;7.524;2024-03-23T04:22:10;97849.28;;;25.98;37.51
67818;BME280;54614;47.576;7.524;2024-03-23T04:24:36;97864.28;;;26.06;37.43
67818;BME280;54614;47.576;7.524;2024-03-23T04:27:02;97879.63;;;26.06;37.47
67818;BME280;54614;47.576;7.524;2024-03-23T04:29:28;97865.09;;;26.07;37.25
67818;BME280;54614;47.576;7.524;2024-03-23T04:31:54;97863.22;;;26.07;37.01
67818;BME280;54614;47.576;7.524;2024-03-23T04:34:21;97863.31;;;26.12;37.17
67818;BME280;54614;47.576;7.524;2024-03-23T04:36:48;97870.97;;;26.04;37.45
67818;BME280;54614;47.576;7.524;2024-03-23T04:39:14;97875.88;;;26.07;37.33
67818;BME280;54614;47.576;7.524;2024-03-23T04:41:40;97882.22;;;26.00;37.44
67818;BME280;54614;47.576;7.524;2024-03-23T04:44:06;97883.25;;;25.99;37.43
67818;BME280;54614;47.576;7.524;2024-03-23T04:46:32;97882.22;;;26.00;37.54
67818;BME280;54614;47.576;7.524;2024-03-23T04:48:57;97887.81;;;25.99;37.34
67818;BME280;54614;47.576;7.524;2024-03-23T04:51:24;97882.22;;;26.00;37.42
67818;BME280;54614;47.576;7.524;2024-03-23T04:53:50;97882.56;;;26.04;37.33
67818;BME280;54614;47.576;7.524;2024-03-23T04:56:16;97887.97;;;26.04;37.36
67818;BME280;54614;47.576;7.524;2024-03-23T04:58:43;97907.88;;;26.03;37.60
67818;BME280;54614;47.576;7.524;2024-03-23T05:01:11;97913.72;;;26.00;37.73
67818;BME280;54614;47.576;7.524;2024-03-23T05:03:37;97914.41;;;25.95;37.63
67818;BME280;54614;47.576;7.524;2024-03-23T05:06:03;97905.41;;;25.78;37.86
67818;BME280;54614;47.576;7.524;2024-03-23T05:08:28;97903.31;;;25.68;38.50
67818;BME280;54614;47.576;7.524;2024-03-23T05:10:55;97892.91;;;25.72;38.09
67818;BME280;54614;47.576;7.524;2024-03-23T05:13:21;97893.56;;;25.91;37.87
67818;BME280;54614;47.576;7.524;2024-03-23T05:15:54;97887.94;;;25.92;38.16
67818;BME280;54614;47.576;7.524;2024-03-23T05:18:21;97899.53;;;25.93;38.14
67818;BME280;54614;47.576;7.524;2024-03-23T05:20:47;97906.47;;;26.00;37.94
67818;BME280;54614;47.576;7.524;2024-03-23T05:23:13;97908.47;;;26.05;37.85
67818;BME280;54614;47.576;7.524;2024-03-23T05:25:39;97917.69;;;25.97;38.13
67818;BME280;54614;47.576;7.524;2024-03-23T05:28:05;97916.63;;;25.98;37.84
67818;BME280;54614;47.576;7.524;2024-03-23T05:30:32;97915.59;;;25.99;37.87
67818;BME280;54614;47.576;7.524;2024-03-23T05:32:58;97915.38;;;26.01;37.71
67818;BME280;54614;47.576;7.524;2024-03-23T05:35:24;97920.53;;;26.02;37.62
67818;BME280;54614;47.576;7.524;2024-03-23T05:37:50;97928.13;;;26.06;37.76
67818;BME280;54614;47.576;7.524;2024-03-23T05:40:16;97937.53;;;26.03;37.72
67818;BME280;54614;47.576;7.524;2024-03-23T05:42:42;97939.25;;;25.97;37.63
67818;BME280;54614;47.576;7.524;2024-03-23T05:45:08;97953.19;;;25.94;38.06
67818;BME280;54614;47.576;7.524;2024-03-23T05:47:34;97944.06;;;25.95;37.60
67818;BME280;54614;47.576;7.524;2024-03-23T05:50:00;97943.50;;;26.05;37.60
67818;BME280;54614;47.576;7.524;2024-03-23T05:52:27;97953.94;;;26.01;37.60
67818;BME280;54614;47.576;7.524;2024-03-23T05:54:53;97955.66;;;25.96;37.79
67818;BME280;54614;47.576;7.524;2024-03-23T05:57:18;97955.81;;;26.01;37.42
67818;BME280;54614;47.576;7.524;2024-03-23T05:59:45;97969.59;;;25.93;38.11
67818;BME280;54614;47.576;7.524;2024-03-23T06:02:11;97976.41;;;25.95;37.77
67818;BME280;54614;47.576;7.524;2024-03-23T06:04:37;97973.94;;;25.94;37.64
67818;BME280;54614;47.576;7.524;2024-03-23T06:07:04;97973.13;;;25.93;37.70
67818;BME280;54614;47.576;7.524;2024-03-23T06:09:32;97988.34;;;25.99;37.74
67818;BME280;54614;47.576;7.524;2024-03-23T06:11:58;97991.41;;;25.91;37.70
67818;BME280;54614;47.576;7.524;2024-03-23T06:14:23;97998.50;;;25.62;38.41
67818;BME280;54614;47.576;7.524;2024-03-23T06:16:49;97995.31;;;25.54;38.60
67818;BME280;54614;47.576;7.524;2024-03-23T06:19:15;97999.41;;;25.45;38.20
67818;BME280;54614;47.576;7.524;2024-03-23T06:21:44;98015.94;;;25.60;38.31
67818;BME280;54614;47.576;7.524;2024-03-23T06:24:11;98024.59;;;25.50;38.46
67818;BME280;54614;47.576;7.524;2024-03-23T06:26:38;98035.31;;;25.68;38.26
67818;BME280;54614;47.576;7.524;2024-03-23T06:29:03;98029.69;;;25.70;38.30
67818;BME280;54614;47.576;7.524;2024-03-23T06:31:31;98037.75;;;25.70;38.17
67818;BME280;54614;47.576;7.524;2024-03-23T06:33:57;98046.03;;;25.57;38.12
67818;BME280;54614;47.576;7.524;2024-03-23T06:36:22;98055.03;;;25.62;38.00
67818;BME280;54614;47.576;7.524;2024-03-23T06:38:48;98063.41;;;25.73;38.03
67818;BME280;54614;47.576;7.524;2024-03-23T06:41:14;98075.97;;;25.79;37.69
67818;BME280;54614;47.576;7.524;2024-03-23T06:43:40;98080.09;;;25.63;38.28
67818;BME280;54614;47.576;7.524;2024-03-23T06:46:06;98088.41;;;25.61;38.53
67818;BME280;54614;47.576;7.524;2024-03-23T06:48:32;98106.81;;;25.64;38.42
67818;BME280;54614;47.576;7.524;2024-03-23T06:50:58;98103.28;;;25.64;38.51
67818;BME280;54614;47.576;7.524;2024-03-23T06:53:24;98120.25;;;25.53;38.41
67818;BME280;54614;47.576;7.524;2024-03-23T06:55:52;98123.59;;;25.66;38.26
67818;BME280;54614;47.576;7.524;2024-03-23T06:58:23;98131.56;;;25.73;38.33
67818;BME280;54614;47.576;7.524;2024-03-23T07:00:49;98119.78;;;25.86;38.06
67818;BME280;54614;47.576;7.524;2024-03-23T07:03:16;98128.94;;;25.96;38.01
67818;BME280;54614;47.576;7.524;2024-03-23T07:05:42;98148.81;;;25.84;37.91
67818;BME280;54614;47.576;7.524;2024-03-23T07:08:08;98156.88;;;25.72;38.16
67818;BME280;54614;47.576;7.524;2024-03-23T07:10:34;98174.91;;;25.72;38.30
67818;BME280;54614;47.576;7.524;2024-03-23T07:13:01;98186.50;;;25.72;38.31
67818;BME280;54614;47.576;7.524;2024-03-23T07:15:27;98215.63;;;25.93;37.82
67818;BME280;54614;47.576;7.524;2024-03-23T07:17:53;98224.59;;;25.76;39.93
67818;BME280;54614;47.576;7.524;2024-03-23T07:20:18;98240.97;;;25.74;38.71
67818;BME280;54614;47.576;7.524;2024-03-23T07:22:46;98252.47;;;25.81;38.81
67818;BME280;54614;47.576;7.524;2024-03-23T07:25:13;98267.75;;;25.87;38.46
67818;BME280;54614;47.576;7.524;2024-03-23T07:27:39;98285.34;;;25.72;39.56
67818;BME280;54614;47.576;7.524;2024-03-23T07:30:06;98281.06;;;25.64;39.63
67818;BME280;54614;47.576;7.524;2024-03-23T07:32:32;98285.56;;;25.70;39.32
67818;BME280;54614;47.576;7.524;2024-03-23T07:34:57;98289.28;;;25.51;38.90
67818;BME280;54614;47.576;7.524;2024-03-23T07:37:23;98291.31;;;25.55;39.40
67818;BME280;54614;47.576;7.524;2024-03-23T07:39:49;98294.38;;;25.59;38.90
67818;BME280;54614;47.576;7.524;2024-03-23T07:42:15;98318.03;;;25.57;38.76
67818;BME280;54614;47.576;7.524;2024-03-23T07:44:41;98331.25;;;25.58;38.47
67818;BME280;54614;47.576;7.524;2024-03-23T07:47:07;98342.59;;;25.67;38.47
67818;BME280;54614;47.576;7.524;2024-03-23T07:49:32;98364.75;;;25.69;38.33
67818;BME280;54614;47.576;7.524;2024-03-23T07:51:58;98369.84;;;25.77;37.96
67818;BME280;54614;47.576;7.524;2024-03-23T07:54:24;98371.94;;;25.75;38.01
67818;BME280;54614;47.576;7.524;2024-03-23T07:56:50;98374.63;;;25.75;40.15
67818;BME280;54614;47.576;7.524;2024-03-23T07:59:15;98375.38;;;26.37;38.47
67818;BME280;54614;47.576;7.524;2024-03-23T08:01:42;98385.00;;;26.45;37.96
67818;BME280;54614;47.576;7.524;2024-03-23T08:04:08;98383.28;;;26.50;37.95
67818;BME280;54614;47.576;7.524;2024-03-23T08:06:34;98393.19;;;26.38;38.32
67818;BME280;54614;47.576;7.524;2024-03-23T08:09:00;98415.41;;;26.52;38.09
67818;BME280;54614;47.576;7.524;2024-03-23T08:11:30;98430.22;;;26.61;37.87
67818;BME280;54614;47.576;7.524;2024-03-23T08:13:57;98444.88;;;26.35;38.00
67818;BME280;54614;47.576;7.524;2024-03-23T08:16:24;98437.44;;;26.49;37.95
67818;BME280;54614;47.576;7.524;2024-03-23T08:18:53;98437.41;;;26.67;37.40
67818;BME280;54614;47.576;7.524;2024-03-23T08:21:20;98414.25;;;26.89;37.17
67818;BME280;54614;47.576;7.524;2024-03-23T08:23:46;98407.28;;;27.00;36.90
67818;BME280;54614;47.576;7.524;2024-03-23T08:26:15;98414.97;;;26.55;37.34
67818;BME280;54614;47.576;7.524;2024-03-23T08:28:41;98413.19;;;26.12;38.10
67818;BME280;54614;47.576;7.524;2024-03-23T08:31:11;98408.84;;;26.11;37.98
67818;BME280;54614;47.576;7.524;2024-03-23T08:33:44;98408.63;;;26.13;37.90
67818;BME280;54614;47.576;7.524;2024-03-23T08:36:10;98410.19;;;25.84;38.41
67818;BME280;54614;47.576;7.524;2024-03-23T08:38:42;98420.22;;;25.95;38.25
67818;BME280;54614;47.576;7.524;2024-03-23T08:41:10;98423.28;;;25.98;37.98
67818;BME280;54614;47.576;7.524;2024-03-23T08:43:38;98423.00;;;26.43;36.87
67818;BME280;54614;47.576;7.524;2024-03-23T08:46:10;98437.22;;;26.50;36.72
67818;BME280;54614;47.576;7.524;2024-03-23T08:48:39;98435.53;;;26.68;36.35
67818;BME280;54614;47.576;7.524;2024-03-23T08:51:07;98433.94;;;26.48;36.34
67818;BME280;54614;47.576;7.524;2024-03-23T08:53:37;98432.66;;;26.51;36.29
67818;BME280;54614;47.576;7.524;2024-03-23T08:56:05;98431.88;;;26.62;36.28
67818;BME280;54614;47.576;7.524;2024-03-23T08:58:36;98451.53;;;26.51;36.30
67818;BME280;54614;47.576;7.524;2024-03-23T09:01:11;98444.81;;;26.42;36.30
67818;BME280;54614;47.576;7.524;2024-03-23T09:03:37;98457.25;;;26.43;36.11
67818;BME280;54614;47.576;7.524;2024-03-23T09:06:11;98454.41;;;26.38;36.21
67818;BME280;54614;47.576;7.524;2024-03-23T09:08:38;98452.75;;;26.37;36.21
67818;BME280;54614;47.576;7.524;2024-03-23T09:11:11;98455.06;;;26.51;35.83
67818;BME280;54614;47.576;7.524;2024-03-23T09:13:38;98466.16;;;26.43;35.96
67818;BME280;54614;47.576;7.524;2024-03-23T09:16:05;98451.25;;;26.41;36.11
67818;BME280;54614;47.576;7.524;2024-03-23T09:18:33;98456.47;;;26.54;35.92
67818;BME280;54614;47.576;7.524;2024-03-23T09:20:59;98458.94;;;26.55;35.46
67818;BME280;54614;47.576;7.524;2024-03-23T09:23:25;98453.72;;;26.42;35.75
67818;BME280;54614;47.576;7.524;2024-03-23T09:25:51;98448.91;;;26.44;35.76
67818;BME280;54614;47.576;7.524;2024-03-23T09:28:16;98457.78;;;26.33;35.84
67818;BME280;54614;47.576;7.524;2024-03-23T09:30:42;98460.25;;;26.35;35.71
67818;BME280;54614;47.576;7.524;2024-03-23T09:33:14;98451.41;;;26.46;35.58
67818;BME280;54614;47.576;7.524;2024-03-23T09:35:42;98449.28;;;26.48;35.45
67818;BME280;54614;47.576;7.524;2024-03-23T09:38:08;98452.88;;;26.60;35.47
67818;BME280;54614;47.576;7.524;2024-03-23T09:40:40;98439.41;;;26.72;35.11
67818;BME280;54614;47.576;7.524;2024-03-23T09:43:07;98438.56;;;26.59;35.22
67818;BME280;54614;47.576;7.524;2024-03-23T09:45:39;98439.50;;;26.65;35.13
67818;BME280;54614;47.576;7.524;2024-03-23T09:48:08;98433.03;;;26.54;35.30
67818;BME280;54614;47.576;7.524;2024-03-23T09:50:40;98426.25;;;26.63;35.28
67818;BME280;54614;47.576;7.524;2024-03-23T09:53:11;98425.09;;;26.71;35.06
67818;BME280;54614;47.576;7.524;2024-03-23T09:55:38;98425.00;;;26.78;34.92
67818;BME280;54614;47.576;7.524;2024-03-23T09:58:05;98432.63;;;26.99;34.53
67818;BME280;54614;47.576;7.524;2024-03-23T10:00:35;98421.84;;;27.11;34.52
67818;BME280;54614;47.576;7.524;2024-03-23T10:03:01;98419.00;;;27.06;34.33
67818;BME280;54614;47.576;7.524;2024-03-23T10:05:29;98408.47;;;27.16;34.31
67818;BME280;54614;47.576;7.524;2024-03-23T10:07:57;98410.81;;;27.12;34.37
67818;BME280;54614;47.576;7.524;2024-03-23T10:10:25;98412.13;;;27.33;33.99
67818;BME280;54614;47.576;7.524;2024-03-23T10:12:51;98411.53;;;27.31;33.95
67818;BME280;54614;47.576;7.524;2024-03-23T10:15:23;98410.13;;;27.28;33.76
67818;BME280;54614;47.576;7.524;2024-03-23T10:17:49;98403.78;;;27.23;33.96
67818;BME280;54614;47.576;7.524;2024-03-23T10:20:23;98403.88;;;27.16;33.86
67818;BME280;54614;47.576;7.524;2024-03-23T10:22:52;98391.00;;;27.30;33.72
67818;BME280;54614;47.576;7.524;2024-03-23T10:25:23;98394.84;;;27.11;34.17
67818;BME280;54614;47.576;7.524;2024-03-23T10:28:01;98398.53;;;26.86;34.17
67818;BME280;54614;47.576;7.524;2024-03-23T10:30:27;98406.47;;;26.81;34.40
67818;BME280;54614;47.576;7.524;2024-03-23T10:33:10;98407.34;;;26.93;34.20
67818;BME280;54614;47.576;7.524;2024-03-23T10:35:40;98406.09;;;26.66;34.85
67818;BME280;54614;47.576;7.524;2024-03-23T10:38:07;98402.75;;;26.94;34.27
67818;BME280;54614;47.576;7.524;2024-03-23T10:40:37;98405.88;;;27.21;33.90
67818;BME280;54614;47.576;7.524;2024-03-23T10:43:08;98406.72;;;27.33;33.15
67818;BME280;54614;47.576;7.524;2024-03-23T10:45:34;98401.44;;;26.85;34.39
67818;BME280;54614;47.576;7.524;2024-03-23T10:48:00;98420.66;;;26.77;34.68
67818;BME280;54614;47.576;7.524;2024-03-23T10:50:27;98420.06;;;26.75;35.67
67818;BME280;54614;47.576;7.524;2024-03-23T10:52:53;98433.94;;;26.78;35.55
67818;BME280;54614;47.576;7.524;2024-03-23T10:55:23;98487.31;;;26.76;35.61
67818;BME280;54614;47.576;7.524;2024-03-23T10:57:59;98492.78;;;26.70;35.70
67818;BME280;54614;47.576;7.524;2024-03-23T11:00:25;98523.75;;;26.49;35.95
67818;BME280;54614;47.576;7.524;2024-03-23T11:02:52;98533.66;;;26.55;36.24
67818;BME280;54614;47.576;7.524;2024-03-23T11:05:36;98535.44;;;26.61;35.92
67818;BME280;54614;47.576;7.524;2024-03-23T11:08:02;98523.84;;;26.42;35.84
67818;BME280;54614;47.576;7.524;2024-03-23T11:10:30;98532.00;;;26.36;36.18
67818;BME280;54614;47.576;7.524;2024-03-23T11:12:57;98542.13;;;26.40;35.73
67818;BME280;54614;47.576;7.524;2024-03-23T11:15:24;98534.41;;;26.44;35.91
67818;BME280;54614;47.576;7.524;2024-03-23T11:18:07;98540.28;;;26.89;36.01
67818;BME280;54614;47.576;7.524;2024-03-23T11:20:37;98539.66;;;26.57;36.43
67818;BME280;54614;47.576;7.524;2024-03-23T11:23:04;98538.00;;;26.56;36.23
67818;BME280;54614;47.576;7.524;2024-03-23T11:25:30;98539.22;;;26.90;36.30
67818;BME280;54614;47.576;7.524;2024-03-23T11:28:11;98532.56;;;27.22;35.30
67818;BME280;54614;47.576;7.524;2024-03-23T11:30:41;98525.81;;;26.83;35.94
67818;BME280;54614;47.576;7.524;2024-03-23T11:33:08;98506.28;;;26.70;36.22
67818;BME280;54614;47.576;7.524;2024-03-23T11:35:43;98511.63;;;26.58;36.27
67818;BME280;54614;47.576;7.524;2024-03-23T11:38:13;98502.09;;;26.55;36.26
67818;BME280;54614;47.576;7.524;2024-03-23T11:40:49;98491.53;;;26.54;36.34
67818;BME280;54614;47.576;7.524;2024-03-23T11:43:18;98480.22;;;26.63;36.28
67818;BME280;54614;47.576;7.524;2024-03-23T11:45:49;98474.34;;;26.67;36.05
67818;BME280;54614;47.576;7.524;2024-03-23T11:48:23;98481.41;;;26.68;35.92
67818;BME280;54614;47.576;7.524;2024-03-23T11:50:55;98478.19;;;26.59;35.96
67818;BME280;54614;47.576;7.524;2024-03-23T11:53:23;98478.56;;;26.62;35.90
67818;BME280;54614;47.576;7.524;2024-03-23T11:55:53;98472.03;;;26.70;35.69
67818;BME280;54614;47.576;7.524;2024-03-23T11:58:24;98463.28;;;26.56;36.04
67818;BME280;54614;47.576;7.524;2024-03-23T12:03:24;98469.06;;;26.60;35.75
67818;BME280;54614;47.576;7.524;2024-03-23T12:06:02;98455.88;;;26.52;35.85
67818;BME280;54614;47.576;7.524;2024-03-23T12:08:35;98444.91;;;26.65;35.55
67818;BME280;54614;47.576;7.524;2024-03-23T12:11:14;98446.97;;;26.51;35.74
67818;BME280;54614;47.576;7.524;2024-03-23T12:13:43;98444.25;;;26.51;35.91
67818;BME280;54614;47.576;7.524;2024-03-23T12:18:44;98444.25;;;26.51;35.70
67818;BME280;54614;47.576;7.524;2024-03-23T12:21:11;98439.31;;;26.48;35.88
67818;BME280;54614;47.576;7.524;2024-03-23T12:23:39;98435.34;;;26.51;35.94
67818;BME280;54614;47.576;7.524;2024-03-23T12:26:06;98420.00;;;26.51;35.88
67818;BME280;54614;47.576;7.524;2024-03-23T12:28:32;98410.72;;;26.47;36.04
67818;BME280;54614;47.576;7.524;2024-03-23T12:30:58;98413.78;;;26.51;35.75
67818;BME280;54614;47.576;7.524;2024-03-23T12:33:24;98394.78;;;26.57;35.91
67818;BME280;54614;47.576;7.524;2024-03-23T12:35:50;98390.22;;;26.58;35.24
67818;BME280;54614;47.576;7.524;2024-03-23T12:38:17;98384.22;;;26.56;35.30
67818;BME280;54614;47.576;7.524;2024-03-23T12:40:50;98371.81;;;26.55;35.12
67818;BME280;54614;47.576;7.524;2024-03-23T12:43:17;98386.06;;;26.25;35.48
67818;BME280;54614;47.576;7.524;2024-03-23T12:45:50;98373.03;;;26.22;35.72
67818;BME280;54614;47.576;7.524;2024-03-23T12:48:18;98381.13;;;26.22;34.92
67818;BME280;54614;47.576;7.524;2024-03-23T12:50:44;98380.31;;;26.40;34.74
67818;BME280;54614;47.576;7.524;2024-03-23T12:53:10;98365.69;;;26.48;34.69
67818;BME280;54614;47.576;7.524;2024-03-23T12:55:36;98376.34;;;26.43;34.61
67818;BME280;54614;47.576;7.524;2024-03-23T12:58:02;98359.47;;;26.29;35.04
67818;BME280;54614;47.576;7.524;2024-03-23T13:00:28;98363.91;;;26.42;34.96
67818;BME280;54614;47.576;7.524;2024-03-23T13:02:54;98363.56;;;26.50;34.83
67818;BME280;54614;47.576;7.524;2024-03-23T13:05:20;98360.88;;;26.50;34.91
67818;BME280;54614;47.576;7.524;2024-03-23T13:07:46;98364.72;;;26.42;35.24
67818;BME280;54614;47.576;7.524;2024-03-23T13:10:12;98358.00;;;26.33;35.07
67818;BME280;54614;47.576;7.524;2024-03-23T13:12:38;98337.19;;;26.52;34.91
67818;BME280;54614;47.576;7.524;2024-03-23T13:15:06;98344.66;;;26.38;35.39
67818;BME280;54614;47.576;7.524;2024-03-23T13:17:32;98341.94;;;26.68;35.40
67818;BME280;54614;47.576;7.524;2024-03-23T13:19:58;98340.97;;;27.27;34.47
67818;BME280;54614;47.576;7.524;2024-03-23T13:22:24;98344.81;;;27.55;34.24
67818;BME280;54614;47.576;7.524;2024-03-23T13:24:49;98335.44;;;27.34;34.58
67818;BME280;54614;47.576;7.524;2024-03-23T13:27:16;98333.56;;;27.35;34.43
67818;BME280;54614;47.576;7.524;2024-03-23T13:29:42;98325.22;;;27.24;34.95
67818;BME280;54614;47.576;7.524;2024-03-23T13:32:08;98320.16;;;26.93;35.46
67818;BME280;54614;47.576;7.524;2024-03-23T13:34:34;98311.94;;;26.88;35.75
67818;BME280;54614;47.576;7.524;2024-03-23T13:37:00;98311.81;;;26.94;35.58
67818;BME280;54614;47.576;7.524;2024-03-23T13:39:27;98306.47;;;27.06;35.53
67818;BME280;54614;47.576;7.524;2024-03-23T13:41:54;98311.22;;;26.92;35.29
67818;BME280;54614;47.576;7.524;2024-03-23T13:44:22;98314.00;;;26.62;35.92
67818;BME280;54614;47.576;7.524;2024-03-23T13:46:48;98299.00;;;26.78;36.13
67818;BME280;54614;47.576;7.524;2024-03-23T13:49:29;98278.94;;;26.86;35.63
67818;BME280;54614;47.576;7.524;2024-03-23T13:51:57;98281.53;;;26.81;35.77
67818;BME280;54614;47.576;7.524;2024-03-23T13:54:27;98280.50;;;27.05;35.39
67818;BME280;54614;47.576;7.524;2024-03-23T13:56:55;98283.69;;;27.14;35.28
67818;BME280;54614;47.576;7.524;2024-03-23T13:59:21;98277.34;;;27.08;35.42